sensor_id;sensor_type;location;lat;lon;timestamp;P1;durP1;ratioP1;P2;durP2;ratioP2
3689;SDS011;1861;50.240;8.596;2023-03-01T00:01:14;10.73;;;6.63;;
3689;SDS011;1861;50.240;8.596;2023-03-01T00:03:44;9.90;;;6.10;;
3689;SDS011;1861;50.240;8.596;2023-03-01T00:06:13;11.33;;;6.50;;
3689;SDS011;1861;50.240;8.596;2023-03-01T00:08:41;11.67;;;7.63;;
3689;SDS011;1861;50.240;8.596;2023-03-01T00:11:11;9.57;;;6.50;;
3689;SDS011;1861;50.240;8.596;2023-03-01T00:13:41;11.00;;;7.00;;
3689;SDS011;1861;50.240;8.596;2023-03-01T00:16:11;14.53;;;7.63;;
3689;SDS011;1861;50.240;8.596;2023-03-01T00:18:41;14.80;;;6.67;;
3689;SDS011;1861;50.240;8.596;2023-03-01T00:21:10;13.77;;;6.67;;
3689;SDS011;1861;50.240;8.596;2023-03-01T00:23:38;11.60;;;6.80;;
3689;SDS011;1861;50.240;8.596;2023-03-01T00:26:08;12.60;;;7.87;;
3689;SDS011;1861;50.240;8.596;2023-03-01T00:28:39;10.90;;;7.43;;
3689;SDS011;1861;50.240;8.596;2023-03-01T00:31:09;11.10;;;8.00;;
3689;SDS011;1861;50.240;8.596;2023-03-01T00:33:39;12.27;;;7.90;;
3689;SDS011;1861;50.240;8.596;2023-03-01T00:36:09;9.70;;;6.30;;
3689;SDS011;1861;50.240;8.596;2023-03-01T00:38:40;12.30;;;7.30;;
3689;SDS011;1861;50.240;8.596;2023-03-01T00:41:10;11.50;;;7.60;;
3689;SDS011;1861;50.240;8.596;2023-03-01T00:43:40;19.03;;;7.77;;
3689;SDS011;1861;50.240;8.596;2023-03-01T00:46:10;10.10;;;6.77;;
3689;SDS011;1861;50.240;8.596;2023-03-01T00:48:40;9.80;;;6.40;;
3689;SDS011;1861;50.240;8.596;2023-03-01T00:51:10;11.30;;;6.80;;
3689;SDS011;1861;50.240;8.596;2023-03-01T00:53:40;13.60;;;7.57;;
3689;SDS011;1861;50.240;8.596;2023-03-01T00:56:09;12.50;;;7.93;;
3689;SDS011;1861;50.240;8.596;2023-03-01T00:58:39;11.87;;;7.23;;
3689;SDS011;1861;50.240;8.596;2023-03-01T01:01:08;14.03;;;7.87;;
3689;SDS011;1861;50.240;8.596;2023-03-01T01:03:46;14.80;;;9.27;;
3689;SDS011;1861;50.240;8.596;2023-03-01T01:06:18;13.47;;;9.03;;
3689;SDS011;1861;50.240;8.596;2023-03-01T01:08:47;13.00;;;7.47;;
3689;SDS011;1861;50.240;8.596;2023-03-01T01:11:16;11.60;;;6.60;;
3689;SDS011;1861;50.240;8.596;2023-03-01T01:13:45;10.77;;;6.80;;
3689;SDS011;1861;50.240;8.596;2023-03-01T01:16:15;15.30;;;7.80;;
3689;SDS011;1861;50.240;8.596;2023-03-01T01:18:46;9.03;;;7.40;;
3689;SDS011;1861;50.240;8.596;2023-03-01T01:21:15;11.17;;;6.80;;
3689;SDS011;1861;50.240;8.596;2023-03-01T01:23:44;13.40;;;7.00;;
3689;SDS011;1861;50.240;8.596;2023-03-01T01:26:13;12.13;;;7.60;;
3689;SDS011;1861;50.240;8.596;2023-03-01T01:28:42;13.20;;;7.13;;
3689;SDS011;1861;50.240;8.596;2023-03-01T01:31:10;13.20;;;8.00;;
3689;SDS011;1861;50.240;8.596;2023-03-01T01:33:39;10.37;;;7.40;;
3689;SDS011;1861;50.240;8.596;2023-03-01T01:36:09;12.00;;;7.13;;
3689;SDS011;1861;50.240;8.596;2023-03-01T01:38:37;20.23;;;7.60;;
3689;SDS011;1861;50.240;8.596;2023-03-01T01:41:06;12.20;;;7.90;;
3689;SDS011;1861;50.240;8.596;2023-03-01T01:43:36;14.87;;;7.23;;
3689;SDS011;1861;50.240;8.596;2023-03-01T01:46:10;13.67;;;7.30;;
3689;SDS011;1861;50.240;8.596;2023-03-01T01:48:48;10.70;;;7.03;;
3689;SDS011;1861;50.240;8.596;2023-03-01T01:51:23;14.37;;;7.00;;
3689;SDS011;1861;50.240;8.596;2023-03-01T01:53:55;11.20;;;6.90;;
3689;SDS011;1861;50.240;8.596;2023-03-01T01:56:27;13.10;;;7.40;;
3689;SDS011;1861;50.240;8.596;2023-03-01T01:58:57;14.67;;;8.87;;
3689;SDS011;1861;50.240;8.596;2023-03-01T02:01:25;25.93;;;10.13;;
3689;SDS011;1861;50.240;8.596;2023-03-01T02:03:53;17.47;;;9.90;;
3689;SDS011;1861;50.240;8.596;2023-03-01T02:06:24;16.87;;;10.07;;
3689;SDS011;1861;50.240;8.596;2023-03-01T02:08:57;19.33;;;8.70;;
3689;SDS011;1861;50.240;8.596;2023-03-01T02:11:29;11.00;;;7.17;;
3689;SDS011;1861;50.240;8.596;2023-03-01T02:13:58;13.90;;;7.63;;
3689;SDS011;1861;50.240;8.596;2023-03-01T02:16:27;12.53;;;8.40;;
3689;SDS011;1861;50.240;8.596;2023-03-01T02:18:56;16.67;;;8.07;;
3689;SDS011;1861;50.240;8.596;2023-03-01T02:21:30;10.63;;;6.80;;
3689;SDS011;1861;50.240;8.596;2023-03-01T02:24:08;15.03;;;7.93;;
3689;SDS011;1861;50.240;8.596;2023-03-01T02:26:49;17.30;;;9.37;;
3689;SDS011;1861;50.240;8.596;2023-03-01T02:29:23;9.43;;;6.83;;
3689;SDS011;1861;50.240;8.596;2023-03-01T02:31:52;13.97;;;7.87;;
3689;SDS011;1861;50.240;8.596;2023-03-01T02:34:25;16.93;;;8.07;;
3689;SDS011;1861;50.240;8.596;2023-03-01T02:36:56;13.97;;;8.30;;
3689;SDS011;1861;50.240;8.596;2023-03-01T02:39:30;14.77;;;8.67;;
3689;SDS011;1861;50.240;8.596;2023-03-01T02:42:01;13.47;;;7.97;;
3689;SDS011;1861;50.240;8.596;2023-03-01T02:44:33;13.80;;;8.27;;
3689;SDS011;1861;50.240;8.596;2023-03-01T02:47:01;21.53;;;10.70;;
3689;SDS011;1861;50.240;8.596;2023-03-01T02:49:33;18.40;;;9.80;;
3689;SDS011;1861;50.240;8.596;2023-03-01T02:52:21;14.83;;;9.00;;
3689;SDS011;1861;50.240;8.596;2023-03-01T02:54:57;16.33;;;8.50;;
3689;SDS011;1861;50.240;8.596;2023-03-01T02:57:29;17.07;;;8.27;;
3689;SDS011;1861;50.240;8.596;2023-03-01T03:00:02;17.10;;;9.20;;
3689;SDS011;1861;50.240;8.596;2023-03-01T03:02:35;16.37;;;7.83;;
3689;SDS011;1861;50.240;8.596;2023-03-01T03:05:13;16.80;;;8.27;;
3689;SDS011;1861;50.240;8.596;2023-03-01T03:07:44;17.13;;;7.60;;
3689;SDS011;1861;50.240;8.596;2023-03-01T03:10:15;13.87;;;8.33;;
3689;SDS011;1861;50.240;8.596;2023-03-01T03:12:48;20.37;;;9.60;;
3689;SDS011;1861;50.240;8.596;2023-03-01T03:15:19;13.17;;;8.73;;
3689;SDS011;1861;50.240;8.596;2023-03-01T03:17:49;13.50;;;8.90;;
3689;SDS011;1861;50.240;8.596;2023-03-01T03:20:19;16.40;;;8.90;;
3689;SDS011;1861;50.240;8.596;2023-03-01T03:22:50;13.90;;;8.77;;
3689;SDS011;1861;50.240;8.596;2023-03-01T03:25:20;12.27;;;7.90;;
3689;SDS011;1861;50.240;8.596;2023-03-01T03:27:50;13.70;;;8.17;;
3689;SDS011;1861;50.240;8.596;2023-03-01T03:30:24;15.10;;;9.27;;
3689;SDS011;1861;50.240;8.596;2023-03-01T03:32:54;19.67;;;8.53;;
3689;SDS011;1861;50.240;8.596;2023-03-01T03:35:24;15.63;;;9.10;;
3689;SDS011;1861;50.240;8.596;2023-03-01T03:37:57;15.63;;;8.17;;
3689;SDS011;1861;50.240;8.596;2023-03-01T03:40:30;15.67;;;9.27;;
3689;SDS011;1861;50.240;8.596;2023-03-01T03:42:59;18.00;;;9.40;;
3689;SDS011;1861;50.240;8.596;2023-03-01T03:45:29;13.93;;;8.70;;
3689;SDS011;1861;50.240;8.596;2023-03-01T03:48:00;14.57;;;8.50;;
3689;SDS011;1861;50.240;8.596;2023-03-01T03:50:28;16.03;;;8.70;;
3689;SDS011;1861;50.240;8.596;2023-03-01T03:52:57;17.93;;;9.17;;
3689;SDS011;1861;50.240;8.596;2023-03-01T03:55:25;13.73;;;8.20;;
3689;SDS011;1861;50.240;8.596;2023-03-01T03:57:57;13.23;;;8.10;;
3689;SDS011;1861;50.240;8.596;2023-03-01T04:00:29;12.53;;;8.23;;
3689;SDS011;1861;50.240;8.596;2023-03-01T04:02:58;12.53;;;8.30;;
3689;SDS011;1861;50.240;8.596;2023-03-01T04:05:27;15.50;;;8.90;;
3689;SDS011;1861;50.240;8.596;2023-03-01T04:07:56;13.57;;;8.33;;
3689;SDS011;1861;50.240;8.596;2023-03-01T04:10:34;17.37;;;8.60;;
3689;SDS011;1861;50.240;8.596;2023-03-01T04:13:04;15.90;;;8.83;;
3689;SDS011;1861;50.240;8.596;2023-03-01T04:15:34;14.33;;;8.10;;
3689;SDS011;1861;50.240;8.596;2023-03-01T04:18:03;16.40;;;10.00;;
3689;SDS011;1861;50.240;8.596;2023-03-01T04:20:32;14.50;;;8.57;;
3689;SDS011;1861;50.240;8.596;2023-03-01T04:23:03;12.80;;;8.93;;
3689;SDS011;1861;50.240;8.596;2023-03-01T04:25:39;14.77;;;8.90;;
3689;SDS011;1861;50.240;8.596;2023-03-01T04:28:09;20.13;;;9.37;;
3689;SDS011;1861;50.240;8.596;2023-03-01T04:30:38;16.93;;;9.20;;
3689;SDS011;1861;50.240;8.596;2023-03-01T04:33:08;16.50;;;9.20;;
3689;SDS011;1861;50.240;8.596;2023-03-01T04:35:37;16.43;;;8.60;;
3689;SDS011;1861;50.240;8.596;2023-03-01T04:38:07;12.40;;;8.33;;
3689;SDS011;1861;50.240;8.596;2023-03-01T04:40:35;16.00;;;8.93;;
3689;SDS011;1861;50.240;8.596;2023-03-01T04:43:04;19.10;;;9.40;;
3689;SDS011;1861;50.240;8.596;2023-03-01T04:45:32;17.33;;;8.27;;
3689;SDS011;1861;50.240;8.596;2023-03-01T04:48:03;18.50;;;8.53;;
3689;SDS011;1861;50.240;8.596;2023-03-01T04:50:32;16.63;;;9.53;;
3689;SDS011;1861;50.240;8.596;2023-03-01T04:53:00;10.87;;;8.13;;
3689;SDS011;1861;50.240;8.596;2023-03-01T04:55:28;19.83;;;9.77;;
3689;SDS011;1861;50.240;8.596;2023-03-01T04:57:57;16.50;;;9.90;;
3689;SDS011;1861;50.240;8.596;2023-03-01T05:00:25;15.50;;;8.87;;
3689;SDS011;1861;50.240;8.596;2023-03-01T05:02:54;13.30;;;8.47;;
3689;SDS011;1861;50.240;8.596;2023-03-01T05:05:25;17.87;;;8.80;;
3689;SDS011;1861;50.240;8.596;2023-03-01T05:07:55;16.40;;;9.20;;
3689;SDS011;1861;50.240;8.596;2023-03-01T05:10:25;14.40;;;8.63;;
3689;SDS011;1861;50.240;8.596;2023-03-01T05:12:56;15.70;;;8.13;;
3689;SDS011;1861;50.240;8.596;2023-03-01T05:15:25;19.80;;;9.50;;
3689;SDS011;1861;50.240;8.596;2023-03-01T05:17:54;15.30;;;9.10;;
3689;SDS011;1861;50.240;8.596;2023-03-01T05:20:28;16.00;;;8.10;;
3689;SDS011;1861;50.240;8.596;2023-03-01T05:22:58;19.80;;;9.53;;
3689;SDS011;1861;50.240;8.596;2023-03-01T05:25:31;12.17;;;8.07;;
3689;SDS011;1861;50.240;8.596;2023-03-01T05:28:00;17.40;;;8.63;;
3689;SDS011;1861;50.240;8.596;2023-03-01T05:30:31;16.67;;;9.70;;
3689;SDS011;1861;50.240;8.596;2023-03-01T05:32:59;15.67;;;8.70;;
3689;SDS011;1861;50.240;8.596;2023-03-01T05:35:29;15.20;;;9.27;;
3689;SDS011;1861;50.240;8.596;2023-03-01T05:37:59;14.83;;;9.47;;
3689;SDS011;1861;50.240;8.596;2023-03-01T05:40:27;15.60;;;8.90;;
3689;SDS011;1861;50.240;8.596;2023-03-01T05:42:56;14.40;;;9.17;;
3689;SDS011;1861;50.240;8.596;2023-03-01T05:45:24;15.63;;;9.20;;
3689;SDS011;1861;50.240;8.596;2023-03-01T05:47:53;14.97;;;8.83;;
3689;SDS011;1861;50.240;8.596;2023-03-01T05:50:22;18.20;;;8.67;;
3689;SDS011;1861;50.240;8.596;2023-03-01T05:52:56;17.43;;;8.70;;
3689;SDS011;1861;50.240;8.596;2023-03-01T05:55:26;14.47;;;8.63;;
3689;SDS011;1861;50.240;8.596;2023-03-01T05:57:55;13.00;;;8.57;;
3689;SDS011;1861;50.240;8.596;2023-03-01T06:00:26;16.17;;;8.80;;
3689;SDS011;1861;50.240;8.596;2023-03-01T06:02:54;14.90;;;8.50;;
3689;SDS011;1861;50.240;8.596;2023-03-01T06:05:24;17.90;;;9.67;;
3689;SDS011;1861;50.240;8.596;2023-03-01T06:07:54;13.47;;;9.37;;
3689;SDS011;1861;50.240;8.596;2023-03-01T06:10:22;17.73;;;10.07;;
3689;SDS011;1861;50.240;8.596;2023-03-01T06:12:51;16.50;;;8.90;;
3689;SDS011;1861;50.240;8.596;2023-03-01T06:15:19;16.53;;;8.60;;
3689;SDS011;1861;50.240;8.596;2023-03-01T06:17:48;14.03;;;8.17;;
3689;SDS011;1861;50.240;8.596;2023-03-01T06:20:16;16.23;;;8.30;;
3689;SDS011;1861;50.240;8.596;2023-03-01T06:22:46;15.17;;;9.03;;
3689;SDS011;1861;50.240;8.596;2023-03-01T06:25:18;13.20;;;8.73;;
3689;SDS011;1861;50.240;8.596;2023-03-01T06:27:48;16.20;;;8.17;;
3689;SDS011;1861;50.240;8.596;2023-03-01T06:30:17;16.57;;;9.17;;
3689;SDS011;1861;50.240;8.596;2023-03-01T06:32:46;16.70;;;7.90;;
3689;SDS011;1861;50.240;8.596;2023-03-01T06:35:15;26.50;;;10.87;;
3689;SDS011;1861;50.240;8.596;2023-03-01T06:37:44;16.07;;;8.60;;
3689;SDS011;1861;50.240;8.596;2023-03-01T06:40:13;12.93;;;7.90;;
3689;SDS011;1861;50.240;8.596;2023-03-01T06:42:47;13.30;;;7.87;;
3689;SDS011;1861;50.240;8.596;2023-03-01T06:45:17;16.40;;;7.83;;
3689;SDS011;1861;50.240;8.596;2023-03-01T06:47:45;16.00;;;9.27;;
3689;SDS011;1861;50.240;8.596;2023-03-01T06:50:14;15.63;;;8.73;;
3689;SDS011;1861;50.240;8.596;2023-03-01T06:52:42;20.60;;;9.30;;
3689;SDS011;1861;50.240;8.596;2023-03-01T06:55:11;23.20;;;10.90;;
3689;SDS011;1861;50.240;8.596;2023-03-01T06:57:39;20.80;;;11.37;;
3689;SDS011;1861;50.240;8.596;2023-03-01T07:00:09;21.53;;;9.00;;
3689;SDS011;1861;50.240;8.596;2023-03-01T07:02:38;18.20;;;8.30;;
3689;SDS011;1861;50.240;8.596;2023-03-01T07:05:06;15.53;;;8.27;;
3689;SDS011;1861;50.240;8.596;2023-03-01T07:07:35;14.90;;;7.90;;
3689;SDS011;1861;50.240;8.596;2023-03-01T07:10:03;14.07;;;8.07;;
3689;SDS011;1861;50.240;8.596;2023-03-01T07:12:32;11.00;;;7.33;;
3689;SDS011;1861;50.240;8.596;2023-03-01T07:15:00;18.50;;;8.17;;
3689;SDS011;1861;50.240;8.596;2023-03-01T07:17:30;12.83;;;7.73;;
3689;SDS011;1861;50.240;8.596;2023-03-01T07:20:00;16.17;;;9.23;;
3689;SDS011;1861;50.240;8.596;2023-03-01T07:22:28;13.40;;;8.23;;
3689;SDS011;1861;50.240;8.596;2023-03-01T07:24:56;16.47;;;8.87;;
3689;SDS011;1861;50.240;8.596;2023-03-01T07:27:24;20.53;;;9.20;;
3689;SDS011;1861;50.240;8.596;2023-03-01T07:29:52;12.33;;;7.80;;
3689;SDS011;1861;50.240;8.596;2023-03-01T07:32:20;13.33;;;8.10;;
3689;SDS011;1861;50.240;8.596;2023-03-01T07:34:50;15.83;;;8.77;;
3689;SDS011;1861;50.240;8.596;2023-03-01T07:37:18;14.80;;;8.90;;
3689;SDS011;1861;50.240;8.596;2023-03-01T07:39:47;17.23;;;9.10;;
3689;SDS011;1861;50.240;8.596;2023-03-01T07:42:15;16.07;;;8.27;;
3689;SDS011;1861;50.240;8.596;2023-03-01T07:44:43;15.73;;;9.40;;
3689;SDS011;1861;50.240;8.596;2023-03-01T07:47:11;15.00;;;8.57;;
3689;SDS011;1861;50.240;8.596;2023-03-01T07:49:39;16.27;;;9.30;;
3689;SDS011;1861;50.240;8.596;2023-03-01T07:52:10;15.73;;;8.93;;
3689;SDS011;1861;50.240;8.596;2023-03-01T07:54:38;15.93;;;8.67;;
3689;SDS011;1861;50.240;8.596;2023-03-01T07:57:08;13.47;;;9.43;;
3689;SDS011;1861;50.240;8.596;2023-03-01T07:59:36;16.03;;;8.20;;
3689;SDS011;1861;50.240;8.596;2023-03-01T08:02:05;19.57;;;9.70;;
3689;SDS011;1861;50.240;8.596;2023-03-01T08:04:33;12.90;;;8.40;;
3689;SDS011;1861;50.240;8.596;2023-03-01T08:07:03;16.57;;;8.73;;
3689;SDS011;1861;50.240;8.596;2023-03-01T08:09:35;13.80;;;8.00;;
3689;SDS011;1861;50.240;8.596;2023-03-01T08:12:04;18.40;;;8.30;;
3689;SDS011;1861;50.240;8.596;2023-03-01T08:14:32;16.57;;;8.70;;
3689;SDS011;1861;50.240;8.596;2023-03-01T08:17:00;12.37;;;7.97;;
3689;SDS011;1861;50.240;8.596;2023-03-01T08:19:29;16.17;;;8.40;;
3689;SDS011;1861;50.240;8.596;2023-03-01T08:21:58;15.77;;;7.93;;
3689;SDS011;1861;50.240;8.596;2023-03-01T08:24:26;12.83;;;8.00;;
3689;SDS011;1861;50.240;8.596;2023-03-01T08:26:55;15.37;;;8.03;;
3689;SDS011;1861;50.240;8.596;2023-03-01T08:29:23;15.43;;;8.97;;
3689;SDS011;1861;50.240;8.596;2023-03-01T08:31:51;13.30;;;8.50;;
3689;SDS011;1861;50.240;8.596;2023-03-01T08:34:20;17.70;;;8.47;;
3689;SDS011;1861;50.240;8.596;2023-03-01T08:36:48;16.57;;;9.20;;
3689;SDS011;1861;50.240;8.596;2023-03-01T08:39:19;16.07;;;9.63;;
3689;SDS011;1861;50.240;8.596;2023-03-01T08:41:47;19.07;;;9.83;;
3689;SDS011;1861;50.240;8.596;2023-03-01T08:44:17;15.07;;;8.90;;
3689;SDS011;1861;50.240;8.596;2023-03-01T08:46:47;14.83;;;8.33;;
3689;SDS011;1861;50.240;8.596;2023-03-01T08:49:16;13.83;;;7.67;;
3689;SDS011;1861;50.240;8.596;2023-03-01T08:51:47;15.57;;;9.40;;
3689;SDS011;1861;50.240;8.596;2023-03-01T08:54:16;13.90;;;8.37;;
3689;SDS011;1861;50.240;8.596;2023-03-01T08:56:46;17.03;;;8.20;;
3689;SDS011;1861;50.240;8.596;2023-03-01T08:59:15;15.10;;;8.37;;
3689;SDS011;1861;50.240;8.596;2023-03-01T09:01:44;13.63;;;8.50;;
3689;SDS011;1861;50.240;8.596;2023-03-01T09:04:12;14.00;;;7.87;;
3689;SDS011;1861;50.240;8.596;2023-03-01T09:06:42;13.93;;;8.37;;
3689;SDS011;1861;50.240;8.596;2023-03-01T09:09:12;16.20;;;8.00;;
3689;SDS011;1861;50.240;8.596;2023-03-01T09:11:42;12.53;;;8.10;;
3689;SDS011;1861;50.240;8.596;2023-03-01T09:14:12;13.00;;;7.80;;
3689;SDS011;1861;50.240;8.596;2023-03-01T09:16:42;16.17;;;8.60;;
3689;SDS011;1861;50.240;8.596;2023-03-01T09:19:11;17.60;;;8.87;;
3689;SDS011;1861;50.240;8.596;2023-03-01T09:21:40;15.00;;;8.90;;
3689;SDS011;1861;50.240;8.596;2023-03-01T09:24:19;13.67;;;8.50;;
3689;SDS011;1861;50.240;8.596;2023-03-01T09:26:48;14.60;;;8.27;;
3689;SDS011;1861;50.240;8.596;2023-03-01T09:29:17;15.40;;;7.93;;
3689;SDS011;1861;50.240;8.596;2023-03-01T09:31:46;16.20;;;9.00;;
3689;SDS011;1861;50.240;8.596;2023-03-01T09:34:15;16.30;;;8.67;;
3689;SDS011;1861;50.240;8.596;2023-03-01T09:36:49;15.57;;;9.03;;
3689;SDS011;1861;50.240;8.596;2023-03-01T09:39:17;12.93;;;7.90;;
3689;SDS011;1861;50.240;8.596;2023-03-01T09:41:48;14.60;;;7.73;;
3689;SDS011;1861;50.240;8.596;2023-03-01T09:44:27;15.63;;;8.63;;
3689;SDS011;1861;50.240;8.596;2023-03-01T09:47:00;13.07;;;7.80;;
3689;SDS011;1861;50.240;8.596;2023-03-01T09:49:29;14.77;;;7.90;;
3689;SDS011;1861;50.240;8.596;2023-03-01T09:52:01;23.10;;;8.30;;
3689;SDS011;1861;50.240;8.596;2023-03-01T09:54:35;18.40;;;8.80;;
3689;SDS011;1861;50.240;8.596;2023-03-01T09:57:09;12.57;;;8.40;;
3689;SDS011;1861;50.240;8.596;2023-03-01T09:59:48;13.17;;;8.70;;
3689;SDS011;1861;50.240;8.596;2023-03-01T10:02:33;16.90;;;9.57;;
3689;SDS011;1861;50.240;8.596;2023-03-01T10:05:14;15.03;;;8.60;;
3689;SDS011;1861;50.240;8.596;2023-03-01T10:07:56;14.20;;;8.33;;
3689;SDS011;1861;50.240;8.596;2023-03-01T10:10:34;19.03;;;9.47;;
3689;SDS011;1861;50.240;8.596;2023-03-01T10:13:08;14.23;;;8.20;;
3689;SDS011;1861;50.240;8.596;2023-03-01T10:15:42;16.27;;;8.83;;
3689;SDS011;1861;50.240;8.596;2023-03-01T10:18:16;18.50;;;9.20;;
3689;SDS011;1861;50.240;8.596;2023-03-01T10:20:48;18.20;;;8.30;;
3689;SDS011;1861;50.240;8.596;2023-03-01T10:23:23;20.60;;;8.43;;
3689;SDS011;1861;50.240;8.596;2023-03-01T10:25:56;14.17;;;9.00;;
3689;SDS011;1861;50.240;8.596;2023-03-01T10:28:36;16.97;;;8.17;;
3689;SDS011;1861;50.240;8.596;2023-03-01T10:31:13;15.17;;;8.40;;
3689;SDS011;1861;50.240;8.596;2023-03-01T10:33:46;16.90;;;8.80;;
3689;SDS011;1861;50.240;8.596;2023-03-01T10:36:17;17.43;;;9.40;;
3689;SDS011;1861;50.240;8.596;2023-03-01T10:38:49;15.10;;;8.40;;
3689;SDS011;1861;50.240;8.596;2023-03-01T10:41:20;15.33;;;8.20;;
3689;SDS011;1861;50.240;8.596;2023-03-01T10:43:51;14.67;;;7.87;;
3689;SDS011;1861;50.240;8.596;2023-03-01T10:46:24;16.50;;;8.20;;
3689;SDS011;1861;50.240;8.596;2023-03-01T10:49:12;13.33;;;8.20;;
3689;SDS011;1861;50.240;8.596;2023-03-01T10:51:44;15.90;;;8.23;;
3689;SDS011;1861;50.240;8.596;2023-03-01T10:54:18;16.20;;;8.63;;
3689;SDS011;1861;50.240;8.596;2023-03-01T10:56:47;17.07;;;8.57;;
3689;SDS011;1861;50.240;8.596;2023-03-01T10:59:27;13.77;;;7.33;;
3689;SDS011;1861;50.240;8.596;2023-03-01T11:05:00;17.43;;;7.70;;
3689;SDS011;1861;50.240;8.596;2023-03-01T11:07:30;12.90;;;7.87;;
3689;SDS011;1861;50.240;8.596;2023-03-01T11:09:58;13.73;;;7.63;;
3689;SDS011;1861;50.240;8.596;2023-03-01T11:12:26;12.73;;;8.63;;
3689;SDS011;1861;50.240;8.596;2023-03-01T11:14:56;18.80;;;7.90;;
3689;SDS011;1861;50.240;8.596;2023-03-01T11:17:27;12.10;;;8.03;;
3689;SDS011;1861;50.240;8.596;2023-03-01T11:20:06;11.30;;;7.53;;
3689;SDS011;1861;50.240;8.596;2023-03-01T11:22:47;17.73;;;7.87;;
3689;SDS011;1861;50.240;8.596;2023-03-01T11:25:17;15.07;;;8.10;;
3689;SDS011;1861;50.240;8.596;2023-03-01T11:27:51;12.10;;;6.70;;
3689;SDS011;1861;50.240;8.596;2023-03-01T11:30:21;12.60;;;6.77;;
3689;SDS011;1861;50.240;8.596;2023-03-01T11:33:01;13.27;;;7.60;;
3689;SDS011;1861;50.240;8.596;2023-03-01T11:35:37;10.60;;;6.90;;
3689;SDS011;1861;50.240;8.596;2023-03-01T11:38:15;20.63;;;7.80;;
3689;SDS011;1861;50.240;8.596;2023-03-01T11:40:49;15.13;;;6.93;;
3689;SDS011;1861;50.240;8.596;2023-03-01T11:43:31;10.33;;;6.50;;
3689;SDS011;1861;50.240;8.596;2023-03-01T11:48:59;9.43;;;6.83;;
3689;SDS011;1861;50.240;8.596;2023-03-01T11:51:44;14.70;;;7.30;;
3689;SDS011;1861;50.240;8.596;2023-03-01T11:54:18;11.57;;;7.23;;
3689;SDS011;1861;50.240;8.596;2023-03-01T11:56:57;12.30;;;7.20;;
3689;SDS011;1861;50.240;8.596;2023-03-01T11:59:35;13.50;;;7.23;;
3689;SDS011;1861;50.240;8.596;2023-03-01T12:02:21;12.90;;;7.40;;
3689;SDS011;1861;50.240;8.596;2023-03-01T12:05:11;12.57;;;7.80;;
3689;SDS011;1861;50.240;8.596;2023-03-01T12:08:06;13.67;;;7.27;;
3689;SDS011;1861;50.240;8.596;2023-03-01T12:10:42;15.53;;;7.20;;
3689;SDS011;1861;50.240;8.596;2023-03-01T12:13:36;16.80;;;7.73;;
3689;SDS011;1861;50.240;8.596;2023-03-01T12:16:31;13.47;;;7.30;;
3689;SDS011;1861;50.240;8.596;2023-03-01T12:19:11;11.17;;;6.97;;
3689;SDS011;1861;50.240;8.596;2023-03-01T12:22:01;12.70;;;7.07;;
3689;SDS011;1861;50.240;8.596;2023-03-01T12:24:54;11.57;;;7.00;;
3689;SDS011;1861;50.240;8.596;2023-03-01T12:27:51;15.53;;;7.73;;
3689;SDS011;1861;50.240;8.596;2023-03-01T12:30:32;17.60;;;8.07;;
3689;SDS011;1861;50.240;8.596;2023-03-01T12:33:14;10.07;;;7.10;;
3689;SDS011;1861;50.240;8.596;2023-03-01T12:35:53;9.63;;;6.70;;
3689;SDS011;1861;50.240;8.596;2023-03-01T12:38:33;10.83;;;6.50;;
3689;SDS011;1861;50.240;8.596;2023-03-01T12:44:01;8.60;;;6.50;;
3689;SDS011;1861;50.240;8.596;2023-03-01T12:46:42;13.47;;;7.37;;
3689;SDS011;1861;50.240;8.596;2023-03-01T12:49:20;8.83;;;5.77;;
3689;SDS011;1861;50.240;8.596;2023-03-01T12:51:55;11.40;;;6.77;;
3689;SDS011;1861;50.240;8.596;2023-03-01T12:54:27;11.53;;;6.63;;
3689;SDS011;1861;50.240;8.596;2023-03-01T12:57:00;10.20;;;6.30;;
3689;SDS011;1861;50.240;8.596;2023-03-01T12:59:34;11.47;;;7.20;;
3689;SDS011;1861;50.240;8.596;2023-03-01T13:02:10;12.20;;;6.30;;
3689;SDS011;1861;50.240;8.596;2023-03-01T13:04:52;10.00;;;6.13;;
3689;SDS011;1861;50.240;8.596;2023-03-01T13:07:35;10.30;;;5.83;;
3689;SDS011;1861;50.240;8.596;2023-03-01T13:10:11;9.07;;;5.97;;
3689;SDS011;1861;50.240;8.596;2023-03-01T13:13:02;10.03;;;5.80;;
3689;SDS011;1861;50.240;8.596;2023-03-01T13:15:40;12.43;;;6.70;;
3689;SDS011;1861;50.240;8.596;2023-03-01T13:18:28;10.47;;;6.37;;
3689;SDS011;1861;50.240;8.596;2023-03-01T13:21:02;10.00;;;5.87;;
3689;SDS011;1861;50.240;8.596;2023-03-01T13:23:33;9.97;;;6.40;;
3689;SDS011;1861;50.240;8.596;2023-03-01T13:26:13;12.30;;;6.90;;
3689;SDS011;1861;50.240;8.596;2023-03-01T13:28:48;13.10;;;6.90;;
3689;SDS011;1861;50.240;8.596;2023-03-01T13:34:43;10.10;;;6.60;;
3689;SDS011;1861;50.240;8.596;2023-03-01T13:37:20;9.43;;;6.30;;
3689;SDS011;1861;50.240;8.596;2023-03-01T13:39:52;11.90;;;7.63;;
3689;SDS011;1861;50.240;8.596;2023-03-01T13:42:37;10.13;;;6.67;;
3689;SDS011;1861;50.240;8.596;2023-03-01T13:45:19;12.63;;;6.40;;
3689;SDS011;1861;50.240;8.596;2023-03-01T13:47:54;8.97;;;6.20;;
3689;SDS011;1861;50.240;8.596;2023-03-01T13:50:27;12.47;;;6.50;;
3689;SDS011;1861;50.240;8.596;2023-03-01T13:52:57;9.40;;;6.20;;
3689;SDS011;1861;50.240;8.596;2023-03-01T13:55:32;12.43;;;6.20;;
3689;SDS011;1861;50.240;8.596;2023-03-01T13:58:12;8.67;;;6.23;;
3689;SDS011;1861;50.240;8.596;2023-03-01T14:00:45;10.30;;;6.77;;
3689;SDS011;1861;50.240;8.596;2023-03-01T14:03:14;12.43;;;7.40;;
3689;SDS011;1861;50.240;8.596;2023-03-01T14:05:50;12.40;;;7.50;;
3689;SDS011;1861;50.240;8.596;2023-03-01T14:08:38;11.60;;;6.27;;
3689;SDS011;1861;50.240;8.596;2023-03-01T14:14:07;11.37;;;6.13;;
3689;SDS011;1861;50.240;8.596;2023-03-01T14:16:49;12.67;;;6.90;;
3689;SDS011;1861;50.240;8.596;2023-03-01T14:19:27;12.33;;;7.40;;
3689;SDS011;1861;50.240;8.596;2023-03-01T14:22:00;12.13;;;6.37;;
3689;SDS011;1861;50.240;8.596;2023-03-01T14:24:38;13.30;;;6.77;;
3689;SDS011;1861;50.240;8.596;2023-03-01T14:27:15;8.63;;;5.73;;
3689;SDS011;1861;50.240;8.596;2023-03-01T14:29:45;12.43;;;5.90;;
3689;SDS011;1861;50.240;8.596;2023-03-01T14:32:25;12.63;;;6.30;;
3689;SDS011;1861;50.240;8.596;2023-03-01T14:34:55;9.23;;;6.00;;
3689;SDS011;1861;50.240;8.596;2023-03-01T14:37:25;11.67;;;6.20;;
3689;SDS011;1861;50.240;8.596;2023-03-01T14:39:55;11.93;;;6.67;;
3689;SDS011;1861;50.240;8.596;2023-03-01T14:42:25;12.23;;;6.10;;
3689;SDS011;1861;50.240;8.596;2023-03-01T14:44:56;11.93;;;6.23;;
3689;SDS011;1861;50.240;8.596;2023-03-01T14:47:29;10.83;;;6.73;;
3689;SDS011;1861;50.240;8.596;2023-03-01T14:50:00;11.70;;;6.00;;
3689;SDS011;1861;50.240;8.596;2023-03-01T14:52:34;12.03;;;6.20;;
3689;SDS011;1861;50.240;8.596;2023-03-01T14:55:05;11.40;;;5.97;;
3689;SDS011;1861;50.240;8.596;2023-03-01T14:57:42;10.60;;;6.40;;
3689;SDS011;1861;50.240;8.596;2023-03-01T15:00:13;12.90;;;6.10;;
3689;SDS011;1861;50.240;8.596;2023-03-01T15:02:47;11.10;;;6.33;;
3689;SDS011;1861;50.240;8.596;2023-03-01T15:05:18;9.23;;;6.10;;
3689;SDS011;1861;50.240;8.596;2023-03-01T15:07:51;9.57;;;5.83;;
3689;SDS011;1861;50.240;8.596;2023-03-01T15:10:20;10.70;;;5.60;;
3689;SDS011;1861;50.240;8.596;2023-03-01T15:12:50;11.47;;;6.30;;
3689;SDS011;1861;50.240;8.596;2023-03-01T15:15:20;13.17;;;7.17;;
3689;SDS011;1861;50.240;8.596;2023-03-01T15:18:05;10.70;;;6.93;;
3689;SDS011;1861;50.240;8.596;2023-03-01T15:20:41;10.03;;;6.17;;
3689;SDS011;1861;50.240;8.596;2023-03-01T15:23:18;11.17;;;6.07;;
3689;SDS011;1861;50.240;8.596;2023-03-01T15:25:49;10.93;;;6.07;;
3689;SDS011;1861;50.240;8.596;2023-03-01T15:28:24;12.90;;;5.90;;
3689;SDS011;1861;50.240;8.596;2023-03-01T15:30:55;11.20;;;6.77;;
3689;SDS011;1861;50.240;8.596;2023-03-01T15:33:31;9.97;;;6.53;;
3689;SDS011;1861;50.240;8.596;2023-03-01T15:36:02;8.93;;;6.20;;
3689;SDS011;1861;50.240;8.596;2023-03-01T15:38:52;9.40;;;6.03;;
3689;SDS011;1861;50.240;8.596;2023-03-01T15:41:24;10.30;;;5.90;;
3689;SDS011;1861;50.240;8.596;2023-03-01T15:43:57;9.70;;;6.00;;
3689;SDS011;1861;50.240;8.596;2023-03-01T15:46:26;11.47;;;6.30;;
3689;SDS011;1861;50.240;8.596;2023-03-01T15:48:59;10.33;;;6.03;;